Time;durP1;ratioP1;P1;durP2;ratioP2;P2;SDS_P1;SDS_P2;PMS_P1;PMS_P2;Temp;Humidity;BMP_temperature;BMP_pressure;BME280_temperature;BME280_humidity;BME280_pressure;Samples;Min_cycle;Max_cycle;Signal;HPM_P1;HPM_P2
2021/10/29 00:02:22;;;;;;;1.92;1.15;;;19.90;51.40;;;24.00;34.00;100974.19;5054962;28;20068;-7
2021/10/29 00:04:48;;;;;;;2.58;1.30;;;19.90;51.40;;;23.99;33.94;100968.97;5055221;28;20132;-8
2021/10/29 00:07:13;;;;;;;1.38;1.27;;;19.90;51.40;;;24.01;34.04;100977.75;5055265;28;20048;-8
2021/10/29 00:09:40;;;;;;;2.60;1.35;;;19.90;51.40;;;23.99;33.96;100975.19;5054850;28;20073;-8
2021/10/29 00:12:06;;;;;;;1.23;1.13;;;20.00;51.30;;;24.02;33.91;100979.44;5054903;28;20456;-8
2021/10/29 00:14:33;;;;;;;1.30;1.20;;;20.00;51.40;;;23.99;33.95;100960.94;5054839;28;20094;-8
2021/10/29 00:17:01;;;;;;;2.03;1.40;;;20.00;51.40;;;24.03;34.04;100975.81;5054718;28;20056;-7
2021/10/29 00:19:27;;;;;;;1.45;1.25;;;20.00;51.40;;;24.00;33.92;100965.34;5054593;28;20099;-7
2021/10/29 00:21:54;;;;;;;1.70;1.23;;;19.90;51.30;;;24.02;34.04;100977.63;5054728;28;20041;-7
2021/10/29 00:24:20;;;;;;;2.00;1.17;;;20.00;51.30;;;24.02;33.90;100972.28;5054732;28;20051;-8
2021/10/29 00:26:46;;;;;;;1.27;1.17;;;20.00;51.30;;;24.01;34.13;100978.59;5054622;28;20048;-7
2021/10/29 00:29:13;;;;;;;2.22;1.45;;;20.00;51.40;;;23.98;33.96;100973.47;5036709;28;20049;-7
2021/10/29 00:31:39;;;;;;;1.65;1.30;;;19.90;51.30;;;24.03;33.99;100981.16;5054653;28;20077;-8
2021/10/29 00:34:05;;;;;;;1.38;1.27;;;20.00;51.30;;;23.99;34.08;100966.28;5054525;28;20053;-8
2021/10/29 00:36:31;;;;;;;1.40;1.30;;;20.00;51.30;;;24.01;34.22;100969.72;5054833;28;20056;-7
2021/10/29 00:38:58;;;;;;;1.58;1.40;;;20.00;51.30;;;24.03;34.13;100978.47;5054506;28;20051;-8
2021/10/29 00:41:25;;;;;;;2.53;1.40;;;20.00;51.20;;;24.00;33.94;100979.53;5054674;28;20061;-8
2021/10/29 00:43:50;;;;;;;1.63;1.17;;;20.00;51.20;;;24.05;34.12;100989.91;5054726;28;20049;-8
2021/10/29 00:46:16;;;;;;;2.03;1.42;;;20.00;51.20;;;24.03;34.00;100979.31;5054033;28;20057;-8
2021/10/29 00:48:42;;;;;;;1.83;1.40;;;20.00;51.20;;;24.02;34.00;100979.44;5054108;28;20052;-8
2021/10/29 00:51:08;;;;;;;1.30;1.15;;;20.00;51.30;;;24.04;33.91;100982.88;5054065;28;20049;-8
2021/10/29 00:53:34;;;;;;;1.25;1.15;;;20.00;51.20;;;24.04;34.18;100989.06;5054410;28;20045;-8
2021/10/29 00:56:00;;;;;;;1.48;1.20;;;20.00;51.20;;;24.06;33.77;100988.94;5053877;28;20041;-8
2021/10/29 00:58:26;;;;;;;1.23;1.13;;;20.10;51.10;;;24.03;34.02;100982.00;5054081;28;20443;-8
2021/10/29 01:00:52;;;;;;;2.85;1.48;;;20.00;51.00;;;24.07;33.84;100987.13;5054312;28;20052;-8
2021/10/29 01:03:18;;;;;;;1.23;1.13;;;20.10;50.90;;;24.03;34.05;100979.31;5054084;28;20045;-8
2021/10/29 01:05:45;;;;;;;1.25;1.15;;;20.10;50.90;;;24.07;33.77;100985.28;5054313;28;20052;-8
2021/10/29 01:08:11;;;;;;;1.52;1.10;;;20.20;50.80;;;24.06;33.87;100983.59;5052799;28;20546;-8
2021/10/29 01:10:38;;;;;;;2.25;1.40;;;20.10;50.90;;;24.08;34.07;100987.00;5054021;28;20049;-8
2021/10/29 01:13:06;;;;;;;1.88;1.25;;;20.10;51.00;;;24.04;34.09;100985.53;5053931;28;20094;-8
2021/10/29 01:15:32;;;;;;;1.58;1.30;;;20.10;51.10;;;24.05;33.85;100981.88;5054494;28;20041;-8
2021/10/29 01:17:58;;;;;;;2.05;1.30;;;20.00;51.10;;;24.06;34.10;100983.59;5054212;28;20045;-8
2021/10/29 01:20:25;;;;;;;1.50;1.17;;;20.10;51.10;;;24.04;34.17;100977.53;5053896;28;20131;-8
2021/10/29 01:22:52;;;;;;;2.13;1.40;;;20.00;51.10;;;24.05;34.16;100979.22;5053883;28;20128;-7
2021/10/29 01:25:19;;;;;;;1.92;1.25;;;20.00;51.10;;;24.03;33.98;100970.47;5053711;28;20083;-7
2021/10/29 01:27:45;;;;;;;1.20;1.10;;;20.10;51.00;;;24.05;33.82;100965.84;5053792;28;20077;-7
2021/10/29 01:30:12;;;;;;;1.50;1.30;;;20.10;50.80;;;24.09;33.96;100982.50;5053547;28;20072;-8
2021/10/29 01:32:38;;;;;;;1.30;1.20;;;20.20;50.70;;;24.09;33.84;100972.69;5053675;28;20514;-7
2021/10/29 01:35:06;;;;;;;1.30;1.20;;;20.20;50.60;;;24.11;34.03;100972.59;5053582;28;20049;-8
2021/10/29 01:37:37;;;;;;;1.65;1.40;;;20.30;50.50;;;24.11;33.94;100985.94;5053880;28;20435;-8
2021/10/29 01:40:09;;;;;;;1.38;1.10;;;20.30;50.30;;;24.11;33.85;100983.28;5053563;28;20071;-7
2021/10/29 01:42:35;;;;;;;1.17;1.08;;;20.20;50.50;;;24.10;34.05;100976.22;5035944;28;20116;-7
2021/10/29 01:45:03;;;;;;;1.50;1.15;;;20.10;50.70;;;24.08;33.90;100979.00;5053600;28;20041;-8
2021/10/29 01:47:29;;;;;;;1.27;1.17;;;20.10;50.90;;;24.07;33.91;100976.44;5053454;28;20040;-8
2021/10/29 01:49:54;;;;;;;1.23;1.10;;;20.10;50.90;;;24.07;33.81;100974.59;5053319;28;20044;-7
2021/10/29 01:52:20;;;;;;;1.38;1.20;;;20.00;51.10;;;24.03;34.03;100968.63;5053350;28;20049;-7
2021/10/29 01:54:46;;;;;;;2.17;1.30;;;20.00;51.20;;;24.04;33.94;100972.19;5053642;28;20045;-8
2021/10/29 01:57:12;;;;;;;1.45;1.15;;;20.00;51.20;;;24.07;34.13;100968.41;5053657;28;20085;-8
2021/10/29 01:59:38;;;;;;;2.05;1.40;;;20.10;50.90;;;24.05;33.97;100965.84;5053151;28;20144;-8
2021/10/29 02:02:05;;;;;;;1.50;1.23;;;20.10;50.90;;;24.05;33.97;100974.72;5053730;28;20041;-8
2021/10/29 02:04:31;;;;;;;1.88;1.45;;;20.00;51.00;;;24.04;33.93;100972.19;5053190;28;20041;-8
2021/10/29 02:06:56;;;;;;;1.52;1.42;;;20.00;51.10;;;24.03;34.10;100968.63;5052459;28;20504;-8
2021/10/29 02:09:22;;;;;;;1.25;1.15;;;20.00;51.20;;;23.99;34.04;100963.63;5053515;28;20057;-7
2021/10/29 02:11:49;;;;;;;1.65;1.38;;;19.90;51.20;;;24.00;34.13;100965.34;5053367;28;20049;-7
2021/10/29 02:14:15;;;;;;;1.25;1.15;;;19.90;51.30;;;23.96;34.26;100955.88;5052855;28;20124;-7
2021/10/29 02:16:43;;;;;;;1.40;1.15;;;19.90;51.40;;;23.93;34.21;100951.59;5053040;28;20132;-7
2021/10/29 02:19:09;;;;;;;1.20;1.10;;;19.90;51.40;;;23.96;34.07;100953.19;5053440;28;20044;-7
2021/10/29 02:21:35;;;;;;;2.80;1.65;;;19.90;51.40;;;23.98;34.18;100957.44;5052683;28;20124;-8
2021/10/29 02:24:02;;;;;;;1.88;1.48;;;19.90;51.30;;;23.98;34.17;100943.25;5052855;28;20045;-7
2021/10/29 02:26:28;;;;;;;1.50;1.27;;;20.00;51.20;;;23.98;34.23;100940.56;5052828;28;20041;-8
2021/10/29 02:28:55;;;;;;;2.45;1.58;;;19.90;51.30;;;23.94;34.19;100936.41;5052857;28;20048;-7
2021/10/29 02:31:21;;;;;;;1.95;1.30;;;19.90;51.30;;;23.93;34.26;100927.53;5052605;28;20056;-8
2021/10/29 02:33:47;;;;;;;1.80;1.38;;;19.90;51.40;;;23.97;34.27;100930.84;5052802;28;20045;-8
2021/10/29 02:36:13;;;;;;;1.05;1.02;;;20.00;51.20;;;23.95;34.15;100924.78;5052661;28;20061;-8
2021/10/29 02:38:39;;;;;;;2.65;1.17;;;20.00;51.30;;;23.93;34.16;100919.53;5052725;28;20469;-7
2021/10/29 02:41:05;;;;;;;1.92;1.38;;;19.90;51.30;;;23.92;34.19;100919.66;5032843;28;20060;-7
2021/10/29 02:43:31;;;;;;;2.05;1.48;;;19.90;51.40;;;23.91;34.04;100923.31;5052108;28;20044;-7
2021/10/29 02:45:57;;;;;;;1.48;1.33;;;19.90;51.30;;;23.94;34.15;100928.38;5049857;28;20057;-8
2021/10/29 02:48:23;;;;;;;2.58;1.48;;;20.00;51.20;;;23.94;34.31;100921.25;5035315;28;20052;-7
2021/10/29 02:50:49;;;;;;;1.58;1.35;;;20.00;51.10;;;23.96;34.10;100916.66;5052621;28;20528;-7
2021/10/29 02:53:15;;;;;;;1.60;1.30;;;20.00;51.10;;;24.02;34.19;100915.31;5052220;28;20119;-8
2021/10/29 02:55:40;;;;;;;1.30;1.20;;;20.10;51.00;;;24.07;34.15;100913.16;5052510;28;20396;-7
2021/10/29 02:58:06;;;;;;;1.65;1.33;;;20.10;50.90;;;24.03;34.17;100907.19;5052357;28;20053;-7
2021/10/29 03:00:32;;;;;;;2.22;1.45;;;20.10;50.90;;;24.08;34.11;100903.34;5052958;28;20049;-8
2021/10/29 03:02:58;;;;;;;2.53;1.50;;;20.20;50.80;;;24.10;33.94;100906.75;5052173;28;20045;-8
2021/10/29 03:05:25;;;;;;;1.45;1.33;;;20.20;50.70;;;24.12;34.09;100911.00;5052872;28;20041;-7
2021/10/29 03:07:50;;;;;;;1.05;1.00;;;20.20;50.60;;;24.15;33.91;100908.09;5052341;28;20049;-8
2021/10/29 03:10:16;;;;;;;1.30;1.20;;;20.30;50.50;;;24.17;34.16;100902.66;5052342;28;20056;-8
2021/10/29 03:12:42;;;;;;;1.50;1.40;;;20.30;50.40;;;24.19;33.86;100906.06;5052443;28;20049;-8
2021/10/29 03:15:10;;;;;;;1.50;1.40;;;20.40;50.40;;;24.25;33.97;100902.09;5052785;28;20049;-7
2021/10/29 03:17:37;;;;;;;1.67;1.52;;;20.40;50.30;;;24.26;33.98;100891.28;5052550;28;20139;-7
2021/10/29 03:20:06;;;;;;;2.38;1.15;;;20.40;50.20;;;24.27;33.66;100895.63;5055010;28;20052;-8
2021/10/29 03:22:32;;;;;;;1.45;1.23;;;20.40;50.10;;;24.32;33.77;100890.78;5055622;28;20131;-8
2021/10/29 03:24:57;;;;;;;1.85;1.23;;;20.50;50.10;;;24.37;33.68;100896.69;5055604;28;20106;-8
2021/10/29 03:27:23;;;;;;;2.22;1.48;;;20.60;50.10;;;24.39;33.94;100897.41;5055626;28;20056;-8
2021/10/29 03:29:49;;;;;;;2.85;1.48;;;20.60;50.00;;;24.38;33.76;100889.50;5055351;28;20047;-8
2021/10/29 03:32:17;;;;;;;1.17;1.05;;;20.60;49.90;;;24.41;33.62;100897.28;5055559;28;20183;-8
2021/10/29 03:34:43;;;;;;;1.40;1.30;;;20.60;49.90;;;24.42;33.75;100896.31;5055571;28;20048;-7
2021/10/29 03:37:24;;;;;;;2.40;1.40;;;20.60;49.80;;;24.47;33.77;100903.97;5055394;28;20049;-7
2021/10/29 03:40:06;;;;;;;1.75;1.38;;;20.60;49.80;;;24.50;33.58;100899.25;5055307;28;20049;-7
2021/10/29 03:42:37;;;;;;;1.70;1.40;;;20.60;49.70;;;24.56;33.51;100903.31;5055478;28;20083;-8
2021/10/29 03:45:06;;;;;;;1.80;1.38;;;20.70;49.80;;;24.57;33.68;100903.22;5055337;28;20049;-7
2021/10/29 03:47:40;;;;;;;1.20;1.10;;;20.70;49.70;;;24.57;33.38;100900.53;5055236;28;20067;-7
2021/10/29 03:50:43;;;;;;;1.45;1.35;;;20.70;49.70;;;24.58;33.63;100902.22;5055282;28;20045;-7
2021/10/29 03:53:11;;;;;;;1.65;1.48;;;20.70;49.70;;;24.62;33.36;100896.63;5053017;28;20057;-7
2021/10/29 03:55:40;;;;;;;1.63;1.40;;;20.70;49.70;;;24.65;33.46;100899.91;5055587;28;20092;-7
2021/10/29 03:58:07;;;;;;;1.40;1.20;;;20.70;49.70;;;24.65;33.44;100891.06;5054886;28;20048;-8
2021/10/29 04:00:34;;;;;;;1.88;1.50;;;20.70;49.70;;;24.64;33.42;100886.66;5055472;28;20091;-7
2021/10/29 04:03:03;;;;;;;1.98;1.67;;;20.70;49.70;;;24.68;33.36;100893.50;5055116;28;20107;-7
2021/10/29 04:05:32;;;;;;;2.58;1.50;;;20.70;49.60;;;24.69;33.34;100893.38;5055008;28;20049;-7
2021/10/29 04:07:58;;;;;;;1.60;1.27;;;20.70;49.60;;;24.65;33.28;100878.53;5054766;28;20410;-7
2021/10/29 04:10:26;;;;;;;1.50;1.40;;;20.70;49.60;;;24.68;33.22;100888.16;5054996;28;20093;-8
2021/10/29 04:12:58;;;;;;;1.58;1.45;;;20.70;49.60;;;24.69;33.35;100893.38;5055477;28;20084;-7
2021/10/29 04:15:24;;;;;;;1.70;1.60;;;20.70;49.60;;;24.72;33.28;100892.28;5055205;28;20496;-8
2021/10/29 04:17:51;;;;;;;1.85;1.35;;;20.70;49.50;;;24.72;33.40;100886.94;5054847;28;20045;-8
2021/10/29 04:20:18;;;;;;;1.67;1.40;;;20.70;49.60;;;24.72;33.33;100892.28;5054602;28;20045;-7
2021/10/29 04:22:44;;;;;;;1.50;1.40;;;20.70;49.50;;;24.74;33.25;100891.19;5054817;28;20048;-8
2021/10/29 04:25:11;;;;;;;1.30;1.20;;;20.70;49.50;;;24.71;33.20;100883.41;5053400;28;20504;-8
2021/10/29 04:27:44;;;;;;;2.35;1.45;;;20.70;49.50;;;24.71;33.19;100888.75;5055051;28;20048;-8
2021/10/29 04:30:15;;;;;;;2.45;1.65;;;20.70;49.50;;;24.72;33.39;100879.75;5053914;28;20485;-8
2021/10/29 04:32:41;;;;;;;;;;;20.70;49.50;;;24.87;32.98;100885.72;5055084;28;20485;-8
2021/10/29 04:35:10;;;;;;;2.30;1.60;;;20.70;49.50;;;24.81;33.02;100882.69;5054874;28;19916;-8
2021/10/29 04:37:35;;;;;;;1.80;1.60;;;20.70;49.50;;;24.75;33.00;100884.03;5054490;28;20041;-7
2021/10/29 04:40:01;;;;;;;1.48;1.35;;;20.70;49.50;;;24.75;33.07;100887.53;5054565;28;20071;-8
2021/10/29 04:42:27;;;;;;;1.63;1.33;;;20.70;49.50;;;24.77;33.09;100887.41;5036686;28;20489;-8
2021/10/29 04:44:53;;;;;;;1.42;1.33;;;20.70;49.50;;;24.73;32.97;100888.66;5054974;28;20048;-7
2021/10/29 04:47:18;;;;;;;1.42;1.17;;;20.70;49.50;;;24.73;33.01;100873.44;5054239;28;20045;-8
2021/10/29 04:49:44;;;;;;;1.50;1.40;;;20.60;49.50;;;24.74;33.18;100879.63;5054462;28;20045;-7
2021/10/29 04:52:10;;;;;;;1.63;1.50;;;20.60;49.50;;;24.69;33.05;100880.00;5054864;28;20057;-8
2021/10/29 04:54:37;;;;;;;1.92;1.60;;;20.60;49.50;;;24.69;33.11;100877.34;5054303;28;20051;-7
2021/10/29 04:57:03;;;;;;;1.65;1.30;;;20.60;49.50;;;24.67;33.05;100865.06;5054603;28;20065;-7
2021/10/29 04:59:29;;;;;;;2.85;1.42;;;20.60;49.50;;;24.70;33.26;100879.03;5054131;28;20099;-8
2021/10/29 05:01:54;;;;;;;2.47;1.58;;;20.60;49.60;;;24.68;33.23;100875.63;5054572;28;20057;-7
2021/10/29 05:04:20;;;;;;;1.58;1.30;;;20.60;49.60;;;24.70;33.17;100883.53;5054329;28;20060;-7
2021/10/29 05:06:46;;;;;;;1.60;1.50;;;20.60;49.50;;;24.69;33.08;100876.47;5053893;28;20048;-8
2021/10/29 05:09:12;;;;;;;1.60;1.50;;;20.60;49.50;;;24.70;33.13;100875.50;5036116;28;20208;-8
2021/10/29 05:11:38;;;;;;;1.50;1.40;;;20.60;49.50;;;24.71;33.17;100874.56;5036433;28;20048;-7
2021/10/29 05:14:04;;;;;;;2.00;1.27;;;20.60;49.50;;;24.70;33.13;100878.19;5053923;28;20098;-7
2021/10/29 05:16:30;;;;;;;1.48;1.38;;;20.60;49.50;;;24.70;33.29;100872.84;5053999;28;20049;-8
2021/10/29 05:18:57;;;;;;;1.52;1.42;;;20.60;49.50;;;24.70;33.24;100873.69;5053845;28;20045;-7
2021/10/29 05:21:25;;;;;;;1.63;1.50;;;20.60;49.50;;;24.68;33.02;100874.78;5053831;28;20048;-8
2021/10/29 05:23:51;;;;;;;1.48;1.38;;;20.60;49.60;;;24.69;32.94;100876.47;5053899;28;20103;-8
2021/10/29 05:26:16;;;;;;;3.45;1.60;;;20.60;49.60;;;24.70;33.10;100878.19;5053519;28;20061;-7
2021/10/29 05:28:42;;;;;;;2.53;1.70;;;20.60;49.60;;;24.68;33.04;100872.13;5049610;28;20057;-9
2021/10/29 05:31:08;;;;;;;2.42;1.73;;;20.60;49.60;;;24.70;33.07;100868.34;5053456;28;20067;-7
2021/10/29 05:33:34;;;;;;;1.75;1.65;;;20.60;49.50;;;24.71;33.09;100871.88;5034975;28;20145;-7
2021/10/29 05:36:01;;;;;;;1.50;1.40;;;20.60;49.60;;;24.67;33.06;100862.38;5053679;28;20120;-7
2021/10/29 05:38:27;;;;;;;1.42;1.33;;;20.60;49.50;;;24.66;32.88;100866.88;5053640;28;20056;-8
2021/10/29 05:40:54;;;;;;;3.63;1.70;;;20.60;49.50;;;24.67;33.18;100867.72;5053465;28;20048;-8
2021/10/29 05:43:19;;;;;;;2.20;1.65;;;20.60;49.70;;;24.69;32.87;100869.31;5052391;28;20044;-8
2021/10/29 05:45:45;;;;;;;1.75;1.63;;;20.70;49.70;;;24.72;32.91;100865.53;5053322;28;20049;-8
2021/10/29 05:48:11;;;;;;;1.67;1.58;;;20.60;49.60;;;24.70;33.11;100870.16;5053635;28;20102;-8
2021/10/29 05:50:45;;;;;;;2.58;1.80;;;20.60;49.60;;;24.71;33.13;100863.84;5053363;28;20068;-7
2021/10/29 05:53:18;;;;;;;1.42;1.33;;;20.60;49.60;;;24.70;33.01;100867.50;5053717;28;20052;-7
2021/10/29 05:55:44;;;;;;;3.03;1.83;;;20.60;49.60;;;24.68;32.95;100864.94;5053654;28;20044;-8
2021/10/29 05:58:10;;;;;;;2.95;1.60;;;20.60;49.60;;;24.67;33.13;100868.56;5053158;28;20052;-8
2021/10/29 06:00:36;;;;;;;2.28;1.70;;;20.60;49.60;;;24.69;33.10;100865.78;5053132;28;20049;-8
2021/10/29 06:03:09;;;;;;;1.60;1.50;;;20.60;49.60;;;24.65;33.14;100867.84;5053216;28;20103;-8
2021/10/29 06:05:35;;;;;;;2.58;1.58;;;20.60;49.60;;;24.66;33.11;100860.66;5053090;28;20102;-9
2021/10/29 06:08:01;;;;;;;1.88;1.67;;;20.60;49.60;;;24.66;33.07;100864.22;5053486;28;20053;-8
2021/10/29 06:10:26;;;;;;;2.35;1.80;;;20.60;49.60;;;24.68;33.13;100866.75;5052989;28;20060;-8
2021/10/29 06:12:52;;;;;;;2.92;1.70;;;20.60;49.60;;;24.64;33.11;100860.81;5053450;28;20072;-9
2021/10/29 06:15:19;;;;;;;2.05;1.80;;;20.60;49.60;;;24.66;32.99;100866.88;5052966;28;20057;-9
2021/10/29 06:17:45;;;;;;;3.55;1.88;;;20.60;49.50;;;24.63;33.20;100860.94;5053253;28;20084;-9
2021/10/29 06:20:12;;;;;;;3.42;1.60;;;20.60;49.60;;;24.66;32.95;100860.66;5052994;28;20056;-8
2021/10/29 06:22:41;;;;;;;2.67;1.55;;;20.60;49.60;;;24.66;33.14;100864.22;5052890;28;20041;-8
2021/10/29 06:25:13;;;;;;;1.75;1.45;;;20.60;49.50;;;24.64;33.08;100857.25;5052773;28;20083;-8
2021/10/29 06:30:06;;;;;;;1.50;1.40;;;20.60;49.40;;;24.69;32.92;100866.66;5052803;28;20136;-9
2021/10/29 06:32:32;;;;;;;1.73;1.60;;;20.60;49.40;;;24.66;33.14;100866.88;5052749;28;20049;-9
2021/10/29 06:34:58;;;;;;;3.00;1.60;;;20.70;49.30;;;24.70;33.15;100862.13;5053049;28;20541;-9
2021/10/29 06:37:25;;;;;;;2.20;1.60;;;20.70;49.20;;;24.73;33.11;100870.78;5052778;28;20056;-9
2021/10/29 06:39:51;;;;;;;1.60;1.50;;;20.70;49.10;;;24.78;32.84;100865.06;5052564;28;20075;-9
2021/10/29 06:42:29;;;;;;;1.75;1.60;;;20.80;49.10;;;24.77;32.74;100866.91;5052981;28;20079;-9
2021/10/29 06:45:07;;;;;;;2.03;1.60;;;20.80;49.00;;;24.81;32.90;100864.84;5052682;28;20556;-8
2021/10/29 06:47:47;;;;;;;2.22;1.65;;;20.90;48.90;;;24.85;32.88;100863.59;5052586;28;20053;-8
2021/10/29 07:01:38;;;;;;;1.85;1.42;;;21.00;48.40;;;24.99;32.79;100854.50;5051028;28;20048;-9
2021/10/29 07:12:21;;;;;;;1.65;1.55;;;21.20;48.20;;;25.12;32.42;100865.91;5052248;28;20456;-9
2021/10/29 07:42:38;;;;;;;1.63;1.52;;;21.40;47.80;;;25.29;32.05;100869.09;5051958;28;20049;-8
2021/10/29 07:45:05;;;;;;;2.28;1.65;;;21.30;47.70;;;25.29;31.95;100866.44;5052182;28;20128;-8
2021/10/29 07:47:31;;;;;;;1.75;1.48;;;21.30;47.70;;;25.34;32.00;100872.25;5052402;28;20044;-9
2021/10/29 07:49:57;;;;;;;2.42;1.88;;;21.30;47.70;;;25.31;31.89;100868.03;5052131;28;20053;-9
2021/10/29 07:52:23;;;;;;;2.63;1.77;;;21.30;47.70;;;25.35;32.05;100876.66;5049303;28;20513;-8
2021/10/29 07:54:49;;;;;;;2.47;1.80;;;21.30;47.70;;;25.36;31.98;100874.81;5051766;28;20481;-9
2021/10/29 07:57:18;;;;;;;1.60;1.50;;;21.30;47.70;;;25.31;31.94;100868.03;5051717;28;20060;-8
2021/10/29 07:59:50;;;;;;;1.70;1.60;;;21.30;47.80;;;25.31;31.99;100865.34;5051676;28;20103;-8
2021/10/29 08:02:17;;;;;;;;;;;21.30;47.80;;;25.46;31.75;100868.59;5052505;28;20128;-8
2021/10/29 08:04:44;;;;;;;2.33;1.90;;;21.30;47.70;;;25.40;31.78;100871.78;5051540;28;19939;-8
2021/10/29 08:07:10;;;;;;;3.78;1.90;;;21.30;47.70;;;25.32;31.80;100859.00;5053370;28;20049;-9
2021/10/29 08:09:37;;;;;;;1.63;1.52;;;21.30;47.80;;;25.36;31.83;100869.47;5054976;28;20041;-8
2021/10/29 08:12:03;;;;;;;2.10;1.90;;;21.20;47.70;;;25.34;31.83;100869.59;5054904;28;20401;-9
2021/10/29 08:14:29;;;;;;;2.50;1.92;;;21.30;47.80;;;25.30;31.81;100862.78;5054888;28;20049;-9
2021/10/29 08:16:55;;;;;;;2.33;1.63;;;21.30;47.90;;;25.30;31.85;100866.31;5054901;28;20401;-9
2021/10/29 08:19:27;;;;;;;1.88;1.50;;;21.20;47.80;;;25.29;31.89;100861.06;5034985;28;20053;-9
2021/10/29 08:21:53;;;;;;;1.80;1.60;;;21.20;47.80;;;25.31;32.05;100869.84;5055259;28;20477;-9
2021/10/29 08:24:19;;;;;;;2.63;1.88;;;21.20;47.80;;;25.29;31.80;100864.63;5054824;28;20049;-9
2021/10/29 08:26:45;;;;;;;2.65;1.40;;;21.20;47.90;;;25.26;31.69;100866.63;5054679;28;20052;-8
2021/10/29 08:29:12;;;;;;;2.05;1.50;;;21.20;47.90;;;25.27;32.03;100874.56;5054686;28;20127;-9
2021/10/29 08:31:37;;;;;;;1.60;1.50;;;21.20;47.90;;;25.26;31.90;100867.53;5037014;28;20393;-9
2021/10/29 08:34:03;;;;;;;1.48;1.30;;;21.20;48.00;;;25.25;31.98;100865.78;5036683;28;20068;-9
2021/10/29 08:36:31;;;;;;;2.30;1.40;;;21.20;48.00;;;25.25;31.98;100873.81;5054622;28;20465;-9
2021/10/29 08:38:58;;;;;;;1.88;1.67;;;21.20;48.00;;;25.23;31.96;100866.91;5054635;28;20409;-9
2021/10/29 08:41:26;;;;;;;3.15;1.70;;;21.10;48.00;;;25.21;31.97;100860.81;5054562;28;20494;-9
2021/10/29 08:43:52;;;;;;;2.22;2.03;;;21.10;48.00;;;25.24;32.00;100860.56;5054467;28;20081;-9
2021/10/29 08:46:19;;;;;;;1.52;1.42;;;21.20;47.90;;;25.26;31.90;100858.59;5054404;28;20049;-9
2021/10/29 08:48:47;;;;;;;2.20;2.00;;;21.20;47.90;;;25.28;31.77;100859.41;5054235;28;20489;-9
2021/10/29 08:51:14;;;;;;;1.73;1.63;;;21.30;47.90;;;25.26;31.87;100855.94;5034764;28;20053;-9
2021/10/29 08:53:40;;;;;;;3.30;2.13;;;21.20;47.80;;;25.24;31.87;100853.41;5054628;28;20055;-9
2021/10/29 08:56:07;;;;;;;2.28;1.67;;;21.20;47.80;;;25.26;31.62;100856.84;5053991;28;20409;-9
2021/10/29 08:58:36;;;;;;;2.30;2.10;;;21.20;47.80;;;25.26;31.79;100863.97;5054262;28;20049;-9
2021/10/29 09:01:10;;;;;;;2.10;1.88;;;21.20;47.80;;;25.24;31.99;100853.41;5054267;28;20390;-9
2021/10/29 09:03:45;;;;;;;2.38;2.10;;;21.20;47.90;;;25.22;31.81;100847.31;5054081;28;20080;-9
2021/10/29 09:31:28;;;;;;;3.28;1.80;;;21.20;47.80;;;25.20;31.95;100822.50;5053744;28;20056;-7
2021/10/29 09:34:11;;;;;;;3.28;2.08;;;21.20;47.80;;;25.19;31.89;100818.13;5052677;28;20049;-8
2021/10/29 09:36:41;;;;;;;3.83;1.50;;;21.20;47.80;;;25.22;31.82;100830.41;5054085;28;20053;-8
2021/10/29 09:39:12;;;;;;;1.55;1.45;;;21.20;47.80;;;25.25;31.70;100828.34;5053643;28;20094;-8
2021/10/29 09:42:06;;;;;;;2.90;1.80;;;21.20;47.90;;;25.24;31.76;100823.09;5049281;28;20044;-8
2021/10/29 09:44:46;;;;;;;1.50;1.40;;;21.20;47.80;;;25.22;31.73;100825.06;5052567;28;20044;-10
2021/10/29 09:47:22;;;;;;;2.63;1.95;;;21.20;47.80;;;25.22;31.84;100819.69;5065988;28;20053;-10
2021/10/29 09:54:59;;;;;;;2.47;2.00;;;21.20;47.80;;;25.24;31.82;100826.66;5053357;28;20045;-9
2021/10/29 09:57:27;;;;;;;1.90;1.75;;;21.20;47.80;;;25.26;31.77;100810.44;5053464;28;20077;-9
2021/10/29 09:59:58;;;;;;;2.35;1.90;;;21.20;47.80;;;25.22;32.07;100814.34;5053282;28;20102;-9
2021/10/29 10:02:28;;;;;;;2.60;2.00;;;21.20;47.80;;;25.27;31.79;100821.06;5053596;28;20060;-9
2021/10/29 10:04:56;;;;;;;2.40;1.87;;;21.20;47.80;;;25.29;31.68;100819.13;5053709;28;20049;-9
2021/10/29 10:07:28;;;;;;;2.42;2.00;;;21.20;47.90;;;25.27;31.92;100802.31;5049062;28;20283;-9
2021/10/29 10:09:57;;;;;;;;;;;21.30;48.00;;;25.44;31.56;100809.00;5035529;28;20060;-9
2021/10/29 10:12:26;;;;;;;3.70;1.92;;;21.30;47.90;;;25.40;31.77;100807.53;5053136;28;19916;-9
2021/10/29 10:14:58;;;;;;;3.40;2.00;;;21.40;47.80;;;25.37;31.77;100805.09;5035307;28;20047;-9
2021/10/29 10:17:25;;;;;;;5.47;2.13;;;21.30;47.90;;;25.38;31.75;100800.63;5035744;28;20041;-10
2021/10/29 10:19:56;;;;;;;2.53;1.95;;;21.30;47.90;;;25.35;31.89;100798.19;5049662;28;20045;-10
2021/10/29 10:22:24;;;;;;;;;;;21.30;47.90;;;25.50;31.63;100792.41;5052668;28;20131;-8
2021/10/29 10:25:00;;;;;;;2.20;1.60;;;21.30;48.40;;;25.41;31.68;100790.50;5052600;28;19916;-8
2021/10/29 10:46:50;;;;;;;3.35;1.92;;;21.40;47.80;;;25.41;31.68;100771.78;5052377;28;20045;-9
2021/10/29 10:49:40;;;;;;;3.33;1.70;;;21.40;47.80;;;25.41;31.69;100765.53;5052265;28;20053;-9
2021/10/29 10:52:20;;;;;;;2.65;1.83;;;21.40;47.70;;;25.44;31.66;100771.53;5035069;28;20049;-9
2021/10/29 10:54:54;;;;;;;3.17;1.58;;;21.40;47.70;;;25.43;31.54;100767.13;5052248;28;20124;-9
2021/10/29 11:00:13;;;;;;;4.65;2.35;;;21.40;47.70;;;25.44;31.69;100757.28;5052056;28;20513;-9
2021/10/29 11:11:05;;;;;;;2.55;2.05;;;21.40;47.60;;;25.42;31.63;100737.81;5044840;28;20049;-8
2021/10/29 11:13:42;;;;;;;3.60;1.70;;;21.40;47.60;;;25.44;31.77;100747.44;5052106;28;20041;-8
2021/10/29 11:16:10;;;;;;;2.95;1.92;;;21.40;47.60;;;25.45;31.59;100740.25;5051968;28;20089;-7
2021/10/29 11:18:39;;;;;;;1.55;1.45;;;21.40;47.60;;;25.45;31.64;100724.19;5032518;28;20209;-7
2021/10/29 11:21:12;;;;;;;2.97;2.10;;;21.40;47.60;;;25.43;31.60;100721.63;5051953;28;20512;-7
2021/10/29 11:23:48;;;;;;;3.00;1.73;;;21.40;47.50;;;25.42;31.65;100717.25;5051049;28;20064;-7
2021/10/29 11:26:28;;;;;;;2.15;1.80;;;21.40;47.50;;;25.44;31.66;100722.47;5051979;28;20551;-7
2021/10/29 11:29:00;;;;;;;2.97;1.83;;;21.40;47.60;;;25.42;31.46;100716.41;5052136;28;20040;-7
2021/10/29 11:31:41;;;;;;;2.47;1.98;;;21.40;47.60;;;25.43;31.55;100710.09;5052083;28;20102;-8
2021/10/29 11:34:13;;;;;;;4.35;1.98;;;21.40;47.60;;;25.44;31.54;100712.63;5050434;28;20041;-8
2021/10/29 11:36:47;;;;;;;3.75;2.00;;;21.40;47.60;;;25.45;31.56;100713.47;5051714;28;20053;-7
2021/10/29 11:39:14;;;;;;;1.98;1.77;;;21.40;47.60;;;25.40;31.54;100703.16;5051867;28;20045;-8
2021/10/29 11:41:44;;;;;;;2.38;1.67;;;21.40;47.60;;;25.44;31.61;100712.63;5055222;28;20053;-8
2021/10/29 11:44:22;;;;;;;3.17;1.85;;;21.40;47.60;;;25.42;31.63;100703.84;5055172;28;20067;-8
2021/10/29 11:46:50;;;;;;;4.00;2.00;;;21.40;47.60;;;25.45;31.59;100705.44;5055044;28;20485;-8
2021/10/29 11:49:24;;;;;;;4.30;2.00;;;21.40;47.60;;;25.42;31.53;100703.84;5055332;28;20084;-8
2021/10/29 11:51:56;;;;;;;4.10;1.92;;;21.40;47.60;;;25.43;31.67;100707.41;5055095;28;20091;-8
2021/10/29 11:54:25;;;;;;;2.35;1.80;;;21.40;47.60;;;25.42;31.68;100701.19;5055273;28;20051;-9
2021/10/29 11:57:17;;;;;;;3.85;2.10;;;21.40;47.70;;;25.38;31.66;100693.56;5054895;28;20045;-8
2021/10/29 12:07:30;;;;;;;3.47;2.20;;;21.40;47.50;;;25.40;31.59;100687.09;5055331;28;20045;-8
2021/10/29 12:10:00;;;;;;;3.15;2.03;;;21.40;47.60;;;25.41;31.79;100690.59;5036917;28;20052;-8
2021/10/29 12:12:28;;;;;;;2.22;1.75;;;21.40;47.60;;;25.39;31.69;100676.50;5055097;28;20057;-7
2021/10/29 12:15:08;;;;;;;2.53;1.90;;;21.40;47.70;;;25.39;31.62;100688.06;5049480;28;20069;-8
2021/10/29 12:17:45;;;;;;;3.10;1.92;;;21.40;47.70;;;25.37;31.66;100683.81;5054572;28;20131;-8
2021/10/29 12:20:19;;;;;;;2.63;1.60;;;21.30;47.70;;;25.37;31.51;100670.44;5051049;28;20049;-8
2021/10/29 12:22:48;;;;;;;3.63;1.80;;;21.40;47.80;;;25.41;31.57;100669.19;5054522;28;20053;-9
2021/10/29 12:53:20;;;;;;;2.42;1.98;;;21.30;48.00;;;25.29;31.82;100636.28;5048811;28;20084;-8